Portland — WDG2201 — position and weather

sailwx.info

Track history (hours):
 
Tides and Currents Weather Stations Pressure Air Temp Water Temp Dewpoint Dewpoint Depression Visibility Wind Speed Wind Dir Waves Ship Positions

Portland

Owner: Shaver Transportation Company, Portland, OR. More information available from US FCC via Universal Licensing System and Coast Guard Vessel Documentation Center.

Last reported at 2017-Dec-11 16:43 UTC. Time now 2017-Dec-12 16:04 UTC.
Position N 45°39' W 122°45'.

Length 27 m; draft 4 m.

Type: Towing. MMSI: 367315814.

Date/timePositionNaut miles runAvg speedWind from/ knotsBaromVisibWave heightAir tempDewpointWater temp
2017-Dec-11 16:43N 45°39' W 122°45'0 0.0
2017-Dec-11 16:10N 45°39' W 122°45'0 0.0
2017-Dec-11 15:58N 45°39' W 122°45'0 0.0
2017-Dec-11 15:28N 45°39' W 122°45'0 0.0
2017-Dec-11 14:56N 45°39' W 122°45'1 2.4
2017-Dec-11 14:31N 45°38' W 122°47'0 0.2
2017-Dec-11 14:00N 45°38' W 122°47'1 2.8
2017-Dec-11 13:31N 45°40' W 122°46'1 2.2
2017-Dec-11 13:00N 45°39' W 122°45'1 1.5
2017-Dec-11 12:30N 45°39' W 122°46'4 7.2
2017-Dec-11 12:00N 45°36' W 122°46'3 5.3
2017-Dec-11 11:30N 45°34' W 122°44'0 0.0
2017-Dec-11 11:00N 45°34' W 122°44'0 0.0
2017-Dec-11 10:30N 45°34' W 122°44'0 0.0
2017-Dec-11 10:00N 45°34' W 122°44'0 0.0
2017-Dec-11 09:30N 45°34' W 122°44'1 2.2
2017-Dec-11 09:00N 45°34' W 122°45'2 3.8
2017-Dec-11 08:28N 45°36' W 122°47'1 1.7
2017-Dec-11 08:00N 45°35' W 122°46'2 4.9
2017-Dec-11 07:31N 45°34' W 122°44'0 0.0
2017-Dec-11 07:00N 45°34' W 122°44'0 0.0
2017-Dec-11 06:30N 45°34' W 122°44'0 0.0
2017-Dec-11 06:00N 45°34' W 122°44'0 0.0
2017-Dec-11 05:30N 45°34' W 122°44'0 0.0
2017-Dec-11 05:00N 45°34' W 122°44'0 0.0
2017-Dec-11 04:30N 45°34' W 122°44'0 0.0
2017-Dec-11 04:00N 45°34' W 122°44'0 0.0
2017-Dec-11 03:30N 45°34' W 122°44'0 0.0
2017-Dec-11 03:00N 45°34' W 122°44'0 0.0
2017-Dec-11 02:30N 45°34' W 122°44'0 0.0
2017-Dec-11 02:00N 45°34' W 122°44'0 0.0
2017-Dec-11 01:30N 45°34' W 122°44'0 0.0
2017-Dec-11 01:00N 45°34' W 122°44'0 0.0
2017-Dec-11 00:30N 45°34' W 122°44'0 0.0
2017-Dec-11 00:00N 45°34' W 122°44'0 0.0
2017-Dec-10 23:30N 45°34' W 122°44'0 0.0
2017-Dec-10 23:00N 45°34' W 122°44'0 0.0
2017-Dec-10 22:30N 45°34' W 122°44'0 0.0
2017-Dec-10 22:00N 45°34' W 122°44'0 0.0
2017-Dec-10 21:30N 45°34' W 122°44'0 0.0
2017-Dec-10 21:00N 45°34' W 122°44'0 0.0
2017-Dec-10 20:30N 45°34' W 122°44'0 0.0
2017-Dec-10 20:00N 45°34' W 122°44'0 0.0
2017-Dec-10 19:30N 45°34' W 122°44'0 0.0
2017-Dec-10 19:00N 45°34' W 122°44'0 0.0
2017-Dec-10 18:30N 45°34' W 122°44'0 0.0
2017-Dec-10 18:00N 45°34' W 122°44'0 0.0
2017-Dec-10 17:30N 45°34' W 122°44'0 0.0
2017-Dec-10 17:00N 45°34' W 122°44'0 0.0
2017-Dec-10 16:30N 45°34' W 122°44'0 0.0
2017-Dec-10 16:00N 45°34' W 122°44'0 0.0
2017-Dec-10 15:30N 45°34' W 122°44'0 0.0
2017-Dec-10 15:00N 45°34' W 122°44'0 0.0
2017-Dec-10 14:30N 45°34' W 122°44'0 0.0
2017-Dec-10 14:00N 45°34' W 122°44'0 0.0
2017-Dec-10 13:30N 45°34' W 122°44'0 0.0
2017-Dec-10 13:00N 45°34' W 122°44'0 0.0
2017-Dec-10 12:30N 45°34' W 122°44'0 0.0
2017-Dec-10 12:00N 45°34' W 122°44'0 0.0
2017-Dec-10 11:30N 45°34' W 122°44'0 0.0
2017-Dec-10 11:00N 45°34' W 122°44'0 0.0
2017-Dec-10 10:30N 45°34' W 122°44'0 0.0
2017-Dec-10 10:00N 45°34' W 122°44'0 0.0
2017-Dec-10 09:30N 45°34' W 122°44'0 0.0
2017-Dec-10 09:00N 45°34' W 122°44'0 0.0
2017-Dec-10 08:30N 45°34' W 122°44'0 0.0
2017-Dec-10 08:00N 45°34' W 122°44'0 0.0
2017-Dec-10 07:30N 45°34' W 122°44'0 0.0
2017-Dec-10 07:00N 45°34' W 122°44'0 0.0
2017-Dec-10 06:30N 45°34' W 122°44'0 0.0
2017-Dec-10 06:00N 45°34' W 122°44'0 0.0
2017-Dec-10 05:30N 45°34' W 122°44'0 0.0
2017-Dec-10 05:00N 45°34' W 122°44'0 0.0
2017-Dec-10 04:30N 45°34' W 122°44'0 0.0
2017-Dec-10 04:00N 45°34' W 122°44'0 0.0
2017-Dec-10 03:30N 45°34' W 122°44'0 0.0
2017-Dec-10 03:00N 45°34' W 122°44'0 0.0
2017-Dec-10 02:30N 45°34' W 122°44'0 0.0
2017-Dec-10 02:00N 45°34' W 122°44'0 0.0
2017-Dec-10 01:30N 45°34' W 122°44'0 0.0
2017-Dec-10 01:00N 45°34' W 122°44'3 5.9
2017-Dec-10 00:30N 45°36' W 122°47'0 0.2
2017-Dec-10 00:00N 45°36' W 122°46'3 5.4
2017-Dec-09 23:29N 45°34' W 122°44'0 0.0
2017-Dec-09 22:59N 45°34' W 122°44'0 0.0
2017-Dec-09 22:26N 45°34' W 122°44'0 0.0
2017-Dec-09 21:56N 45°34' W 122°44'0 0.0
2017-Dec-09 21:26N 45°34' W 122°44'0 0.0
2017-Dec-09 20:56N 45°34' W 122°44'0 0.0
2017-Dec-09 20:29N 45°34' W 122°44'0 0.0
2017-Dec-09 19:56N 45°34' W 122°44'0 0.0
2017-Dec-09 19:29N 45°34' W 122°44'0 0.0
2017-Dec-09 18:56N 45°34' W 122°44'0 0.0
2017-Dec-09 18:29N 45°34' W 122°44'0 0.0
2017-Dec-09 17:59N 45°34' W 122°44'0 0.0
2017-Dec-09 17:26N 45°34' W 122°44'0 0.0
2017-Dec-09 16:50N 45°34' W 122°44'0 0.0
2017-Dec-09 16:26N 45°34' W 122°44'2 3.9
2017-Dec-09 15:57N 45°35' W 122°46'3 6.2
2017-Dec-09 15:30N 45°37' W 122°47'2 1.6
2017-Dec-09 14:12N 45°39' W 122°45'0 0.0
2017-Dec-09 13:45N 45°39' W 122°45'0 0.0
2017-Dec-09 13:30N 45°39' W 122°45'0 0.0
2017-Dec-09 12:47N 45°39' W 122°45'0 0.0
2017-Dec-09 12:17N 45°39' W 122°45'0 0.0
2017-Dec-09 11:53N 45°39' W 122°45'2 5.5
2017-Dec-09 11:30N 45°41' W 122°46'611.3
2017-Dec-09 11:00N 45°46' W 122°46'510.8
2017-Dec-09 10:30N 45°52' W 122°47'510.7
2017-Dec-09 10:00N 45°57' W 122°49'510.7
2017-Dec-09 09:31N 46°01' W 122°52'0 0.4
2017-Dec-09 09:00N 46°02' W 122°52'0 0.1
2017-Dec-09 08:30N 46°02' W 122°53'2 4.1
2017-Dec-09 08:00N 46°04' W 122°53'3 5.3
2017-Dec-09 07:30N 46°05' W 122°56'0 0.0
2017-Dec-09 07:00N 46°05' W 122°56'0 0.0
2017-Dec-09 06:06N 46°05' W 122°56'0 0.1
2017-Dec-09 05:59N 46°05' W 122°56'1 1.3
2017-Dec-09 05:30N 46°06' W 122°56'0 0.1
2017-Dec-09 05:00N 46°06' W 122°56'0 0.0
2017-Dec-09 04:30N 46°06' W 122°56'0 0.0
2017-Dec-09 04:01N 46°06' W 122°56'0 0.1
2017-Dec-09 03:31N 46°06' W 122°56'0 0.1
2017-Dec-09 03:00N 46°06' W 122°56'0 0.1
2017-Dec-09 02:30N 46°06' W 122°56'0 0.0
2017-Dec-09 02:00N 46°06' W 122°56'0 0.0
2017-Dec-09 01:31N 46°06' W 122°56'0 0.0
2017-Dec-09 01:00N 46°06' W 122°56'0 0.0
2017-Dec-09 00:30N 46°06' W 122°56'0 0.0
2017-Dec-09 00:00N 46°06' W 122°56'1 1.1
2017-Dec-08 23:28N 46°05' W 122°56'0 0.0
2017-Dec-08 22:58N 46°05' W 122°56'0 0.0
2017-Dec-08 22:28N 46°05' W 122°56'0 0.0
2017-Dec-08 21:58N 46°05' W 122°56'0 0.0
2017-Dec-08 21:22N 46°05' W 122°56'0 0.0
2017-Dec-08 20:58N 46°05' W 122°56'0 0.0
2017-Dec-08 20:28N 46°05' W 122°56'0 0.0
2017-Dec-08 19:58N 46°05' W 122°56'0 0.0
2017-Dec-08 19:28N 46°05' W 122°56'0 0.0
2017-Dec-08 18:58N 46°05' W 122°56'0 0.0
2017-Dec-08 18:28N 46°05' W 122°56'0 0.0
2017-Dec-08 17:58N 46°05' W 122°56'0 0.0
2017-Dec-08 17:22N 46°05' W 122°56'0 0.0
2017-Dec-08 16:52N 46°05' W 122°56'0 0.0
2017-Dec-08 16:28N 46°05' W 122°56'0 0.0
2017-Dec-08 15:58N 46°05' W 122°56'0 0.0
2017-Dec-08 15:28N 46°05' W 122°56'0 0.0
2017-Dec-08 14:55N 46°05' W 122°56'0 0.0
2017-Dec-08 14:25N 46°05' W 122°56'0 0.0
2017-Dec-08 13:52N 46°05' W 122°56'0 0.0
2017-Dec-08 13:28N 46°05' W 122°56'0 0.0
2017-Dec-08 12:58N 46°05' W 122°56'0 0.0
2017-Dec-08 12:25N 46°05' W 122°56'0 0.0
2017-Dec-08 11:55N 46°05' W 122°56'0 0.0
2017-Dec-08 11:25N 46°05' W 122°56'0 0.0
2017-Dec-08 10:55N 46°05' W 122°56'0 0.0
2017-Dec-08 10:28N 46°05' W 122°56'0 0.0
2017-Dec-08 09:58N 46°05' W 122°56'0 0.0
2017-Dec-08 09:28N 46°05' W 122°56'0 0.0
2017-Dec-08 08:25N 46°05' W 122°56'0 0.0
2017-Dec-08 07:58N 46°05' W 122°56'0 0.0
2017-Dec-08 07:28N 46°05' W 122°56'0 0.0
2017-Dec-08 06:58N 46°05' W 122°56'0 0.0
2017-Dec-08 06:28N 46°05' W 122°56'0 0.0
2017-Dec-08 05:55N 46°05' W 122°56'0 0.0
2017-Dec-08 05:28N 46°05' W 122°56'0 0.0
2017-Dec-08 04:55N 46°05' W 122°56'0 0.0
2017-Dec-08 03:55N 46°05' W 122°56'0 0.0
2017-Dec-08 03:28N 46°05' W 122°56'0 0.0
2017-Dec-08 02:58N 46°05' W 122°56'0 0.0
2017-Dec-08 02:29N 46°05' W 122°56'0 0.0
2017-Dec-08 01:58N 46°05' W 122°56'0 0.0
2017-Dec-08 01:25N 46°05' W 122°56'0 0.0
2017-Dec-08 00:58N 46°05' W 122°56'0 0.0
2017-Dec-08 00:28N 46°05' W 122°56'0 0.0
2017-Dec-07 23:58N 46°05' W 122°56'0 0.0
2017-Dec-07 23:28N 46°05' W 122°56'0 0.0
2017-Dec-07 22:55N 46°05' W 122°56'0 0.0
2017-Dec-07 22:25N 46°05' W 122°56'0 0.0
2017-Dec-07 21:58N 46°05' W 122°56'0 0.0
2017-Dec-07 21:10N 46°05' W 122°56'0 0.0
2017-Dec-07 20:49N 46°05' W 122°56'0 0.0
2017-Dec-07 20:28N 46°05' W 122°56'0 0.0
2017-Dec-07 19:58N 46°05' W 122°56'0 0.0
2017-Dec-07 19:28N 46°05' W 122°56'0 0.0
2017-Dec-07 18:52N 46°05' W 122°56'0 0.0
2017-Dec-07 18:28N 46°05' W 122°56'0 0.0
2017-Dec-07 17:58N 46°05' W 122°56'0 0.0
2017-Dec-07 17:01N 46°05' W 122°56'0 0.0
2017-Dec-07 16:37N 46°05' W 122°56'0 0.0
2017-Dec-07 16:28N 46°05' W 122°56'0 0.0
2017-Dec-07 15:55N 46°05' W 122°56'0 0.1
2017-Dec-07 15:31N 46°05' W 122°56'4 8.3
2017-Dec-07 15:01N 46°02' W 122°53'3 6.8
2017-Dec-07 14:31N 45°59' W 122°50'0 0.2
2017-Dec-07 14:01N 45°59' W 122°50'1 2.2
2017-Dec-07 13:31N 46°00' W 122°51'2 3.6
2017-Dec-07 13:00N 46°02' W 122°52'0 0.0
2017-Dec-07 12:31N 46°02' W 122°52'0 0.0
2017-Dec-07 12:00N 46°02' W 122°52'0 0.6
2017-Dec-07 11:31N 46°02' W 122°53'0 0.0
2017-Dec-07 11:01N 46°02' W 122°53'0 0.0
2017-Dec-07 10:30N 46°02' W 122°53'0 0.0
2017-Dec-07 10:00N 46°02' W 122°53'0 0.0
2017-Dec-07 09:31N 46°02' W 122°53'0 0.0
2017-Dec-07 09:00N 46°02' W 122°53'2 3.6
2017-Dec-07 08:31N 46°00' W 122°51'1 2.6
2017-Dec-07 08:01N 45°59' W 122°50'0 0.0
2017-Dec-07 07:31N 45°59' W 122°50'3 6.1
2017-Dec-07 07:01N 46°02' W 122°52'0 0.0
2017-Dec-07 06:31N 46°02' W 122°52'3 5.0
2017-Dec-07 06:00N 45°59' W 122°50'0 0.0
2017-Dec-07 05:30N 45°59' W 122°50'0 0.6
2017-Dec-07 05:00N 45°59' W 122°50'3 5.1
2017-Dec-07 04:30N 46°01' W 122°52'3 5.5
2017-Dec-07 04:01N 46°04' W 122°53'0 0.2
2017-Dec-07 03:30N 46°04' W 122°53'2 1.7
2017-Dec-07 02:38N 46°03' W 122°53'1 7.6
2017-Dec-07 02:31N 46°02' W 122°52'0 0.1
2017-Dec-07 02:00N 46°02' W 122°52'0 0.0
2017-Dec-07 01:30N 46°02' W 122°52'0 0.0
2017-Dec-07 01:00N 46°02' W 122°52'0 0.2
2017-Dec-07 00:30N 46°02' W 122°52'1 2.9
2017-Dec-07 00:00N 46°00' W 122°51'5 9.7
2017-Dec-06 23:30N 45°56' W 122°48'510.2
2017-Dec-06 23:00N 45°51' W 122°47'510.1
2017-Dec-06 22:30N 45°46' W 122°46'610.5
2017-Dec-06 21:59N 45°40' W 122°46'2 4.1
2017-Dec-06 21:30N 45°39' W 122°45'0 0.1
2017-Dec-06 20:57N 45°39' W 122°45'  
2017-Dec-04 10:21N 46°05' W 122°56'0 0.0
2017-Dec-04 10:00N 46°05' W 122°56'0 0.0
2017-Dec-04 09:30N 46°05' W 122°56'0 0.0
2017-Dec-04 08:42N 46°05' W 122°56'0 0.0
2017-Dec-04 08:30N 46°05' W 122°56'0 0.0
2017-Dec-04 07:48N 46°05' W 122°56'0 0.0
2017-Dec-04 07:30N 46°05' W 122°56'0 0.0
2017-Dec-04 06:57N 46°05' W 122°56'0 0.0
2017-Dec-04 06:24N 46°05' W 122°56'0 0.0
2017-Dec-04 06:00N 46°05' W 122°56'0 0.0
2017-Dec-04 05:24N 46°05' W 122°56'0 0.0
2017-Dec-04 04:51N 46°05' W 122°56'0 0.0
2017-Dec-04 04:30N 46°05' W 122°56'1 2.4
2017-Dec-04 04:00N 46°05' W 122°54'612.0
2017-Dec-04 03:31N 45°60' W 122°51'1 1.4
2017-Dec-04 03:00N 45°59' W 122°50'0 0.4
2017-Dec-04 02:30N 45°59' W 122°50'4 8.6
2017-Dec-04 02:00N 46°03' W 122°53'3 6.5
2017-Dec-04 01:30N 46°05' W 122°56'0 0.0
2017-Dec-04 00:58N 46°05' W 122°56'0 0.0
2017-Dec-04 00:28N 46°05' W 122°56'0 0.0
2017-Dec-03 23:58N 46°05' W 122°56'0 0.0
2017-Dec-03 23:28N 46°05' W 122°56'0 0.0
2017-Dec-03 22:10N 46°05' W 122°56'0 0.0
2017-Dec-03 21:58N 46°05' W 122°56'0 0.0
2017-Dec-03 21:22N 46°05' W 122°56'0 0.0
2017-Dec-03 20:58N 46°05' W 122°56'0 0.9
2017-Dec-03 20:30N 46°06' W 122°56'0 0.3
2017-Dec-03 19:59N 46°06' W 122°56'0 0.8
2017-Dec-03 19:29N 46°06' W 122°57'0 0.4
2017-Dec-03 19:00N 46°06' W 122°57'0 0.0
2017-Dec-03 18:27N 46°06' W 122°57'1 1.4
2017-Dec-03 18:00N 46°06' W 122°56'0 0.6
2017-Dec-03 17:27N 46°05' W 122°56'0 0.0
2017-Dec-03 16:57N 46°05' W 122°56'0 0.0
2017-Dec-03 16:30N 46°05' W 122°56'0 0.0
2017-Dec-03 16:00N 46°05' W 122°56'0 0.0
2017-Dec-03 15:27N 46°05' W 122°56'0 0.0
2017-Dec-03 14:51N 46°05' W 122°56'0 0.0
2017-Dec-03 14:30N 46°05' W 122°56'0 0.0
2017-Dec-03 14:00N 46°05' W 122°56'0 0.0
2017-Dec-03 13:27N 46°05' W 122°56'0 0.0
2017-Dec-03 13:00N 46°05' W 122°56'0 0.0
2017-Dec-03 12:30N 46°05' W 122°56'0 0.0
2017-Dec-03 12:00N 46°05' W 122°56'0 0.0
2017-Dec-03 11:30N 46°05' W 122°56'0 0.0
2017-Dec-03 11:00N 46°05' W 122°56'0 0.0
2017-Dec-03 10:30N 46°05' W 122°56'0 0.0
2017-Dec-03 09:57N 46°05' W 122°56'0 0.0
2017-Dec-03 09:30N 46°05' W 122°56'0 0.0
2017-Dec-03 08:57N 46°05' W 122°56'0 0.0
2017-Dec-03 08:30N 46°05' W 122°56'0 0.0
2017-Dec-03 08:00N 46°05' W 122°56'0 0.0
2017-Dec-03 07:30N 46°05' W 122°56'0 0.0
2017-Dec-03 06:51N 46°05' W 122°56'0 0.0
2017-Dec-03 06:30N 46°05' W 122°56'0 0.0
2017-Dec-03 06:00N 46°05' W 122°56'0 0.0
2017-Dec-03 05:30N 46°05' W 122°56'0 0.0
2017-Dec-03 05:00N 46°05' W 122°56'0 0.0
2017-Dec-03 04:27N 46°05' W 122°56'0 0.0
2017-Dec-03 04:00N 46°05' W 122°56'0 0.0
2017-Dec-03 03:21N 46°05' W 122°56'0 0.0
2017-Dec-03 03:00N 46°05' W 122°56'510.0
2017-Dec-03 02:30N 46°01' W 122°52'611.5
2017-Dec-03 02:00N 45°56' W 122°48'612.1
2017-Dec-03 01:30N 45°50' W 122°47'713.4
2017-Dec-03 01:01N 45°43' W 122°46'5 9.8
2017-Dec-03 00:31N 45°39' W 122°45'2 3.1
2017-Dec-03 00:00N 45°38' W 122°43'0 0.1
2017-Dec-02 23:30N 45°38' W 122°43'1 2.3
2017-Dec-02 23:01N 45°39' W 122°45'0 0.8
2017-Dec-02 22:30N 45°39' W 122°45'0 0.0
2017-Dec-02 21:53N 45°39' W 122°45'0 0.0
2017-Dec-02 21:29N 45°39' W 122°45'0 0.0
2017-Dec-02 20:56N 45°39' W 122°45'0 0.0
2017-Dec-02 20:06N 45°39' W 122°45'0 0.0
2017-Dec-02 19:59N 45°39' W 122°45'0 0.0
2017-Dec-02 19:17N 45°39' W 122°45'0 0.0
2017-Dec-02 18:56N 45°39' W 122°45'0 0.0
2017-Dec-02 18:17N 45°39' W 122°45'0 0.0
2017-Dec-02 17:59N 45°39' W 122°45'0 0.0
2017-Dec-02 17:26N 45°39' W 122°45'0 0.0
2017-Dec-02 16:59N 45°39' W 122°45'0 0.0
2017-Dec-02 16:26N 45°39' W 122°45'0 0.0
2017-Dec-02 15:47N 45°39' W 122°45'0 0.0
2017-Dec-02 15:26N 45°39' W 122°45'0 0.0
2017-Dec-02 14:56N 45°39' W 122°45'0 0.0
2017-Dec-02 14:29N 45°39' W 122°45'0 0.0
2017-Dec-02 13:50N 45°39' W 122°45'0 0.0
2017-Dec-02 13:29N 45°39' W 122°45'0 0.0
2017-Dec-02 12:53N 45°39' W 122°45'0 0.0
2017-Dec-02 12:29N 45°39' W 122°45'0 0.0
2017-Dec-02 11:59N 45°39' W 122°45'0 0.0
2017-Dec-02 11:20N 45°39' W 122°45'0 0.0
2017-Dec-02 10:59N 45°39' W 122°45'0 0.0
2017-Dec-02 10:29N 45°39' W 122°45'0 0.0
2017-Dec-02 09:59N 45°39' W 122°45'0 0.0
2017-Dec-02 09:29N 45°39' W 122°45'0 0.0
2017-Dec-02 08:56N 45°39' W 122°45'0 0.0
2017-Dec-02 08:14N 45°39' W 122°45'0 0.0
2017-Dec-02 07:56N 45°39' W 122°45'0 0.0
2017-Dec-02 07:29N 45°39' W 122°45'0 0.0
2017-Dec-02 06:56N 45°39' W 122°45'0 0.0
2017-Dec-02 06:29N 45°39' W 122°45'0 0.0
2017-Dec-02 05:59N 45°39' W 122°45'0 0.0
2017-Dec-02 05:26N 45°39' W 122°45'0 0.0
2017-Dec-02 04:59N 45°39' W 122°45'0 0.0
2017-Dec-02 04:23N 45°39' W 122°45'0 0.0
2017-Dec-02 03:56N 45°39' W 122°45'0 0.0
2017-Dec-02 03:29N 45°39' W 122°45'0 0.0
2017-Dec-02 02:59N 45°39' W 122°45'2 3.2
2017-Dec-02 02:31N 45°38' W 122°43'0 0.2
2017-Dec-02 02:00N 45°38' W 122°43'0 0.1
2017-Dec-02 01:30N 45°38' W 122°43'0 0.0
2017-Dec-02 01:00N 45°38' W 122°43'1 2.9
2017-Dec-02 00:30N 45°39' W 122°45'1 1.9
2017-Dec-02 00:00N 45°38' W 122°44'0 0.0
2017-Dec-01 23:30N 45°38' W 122°44'1 1.7
2017-Dec-01 22:59N 45°39' W 122°45'0 0.0
2017-Dec-01 22:29N 45°39' W 122°45'0 0.0
2017-Dec-01 22:00N 45°39' W 122°45'1 2.0
2017-Dec-01 21:30N 45°38' W 122°44'2 3.7
2017-Dec-01 21:00N 45°39' W 122°46'4 8.3
2017-Dec-01 20:30N 45°35' W 122°45'4 8.4
2017-Dec-01 20:00N 45°32' W 122°40'0 0.1
2017-Dec-01 19:30N 45°32' W 122°40'3 4.9
2017-Dec-01 18:57N 45°34' W 122°44'0 0.0
2017-Dec-01 18:30N 45°34' W 122°44'0 0.0
2017-Dec-01 17:57N 45°34' W 122°44'1 1.3
2017-Dec-01 17:30N 45°34' W 122°43'1 1.2
2017-Dec-01 17:00N 45°34' W 122°44'  
Track history (hours):
 
Tides and Currents Weather Stations Pressure Air Temp Water Temp Dewpoint Dewpoint Depression Visibility Wind Speed Wind Dir Waves Ship Positions

Portland

Owner: Shaver Transportation Company, Portland, OR. More information available from US FCC via Universal Licensing System and Coast Guard Vessel Documentation Center.

Last reported at 2017-Dec-11 16:43 UTC. Time now 2017-Dec-12 16:04 UTC.
Position N 45°39' W 122°45'.

Length 27 m; draft 4 m.

Type: Towing. MMSI: 367315814.

Date/timePositionNaut miles runAvg speedWind from/ knotsBaromVisibWave heightAir tempDewpointWater temp
2017-Dec-11 16:43N 45°39' W 122°45'0 0.0
2017-Dec-11 16:10N 45°39' W 122°45'0 0.0
2017-Dec-11 15:58N 45°39' W 122°45'0 0.0
2017-Dec-11 15:28N 45°39' W 122°45'0 0.0
2017-Dec-11 14:56N 45°39' W 122°45'1 2.4
2017-Dec-11 14:31N 45°38' W 122°47'0 0.2
2017-Dec-11 14:00N 45°38' W 122°47'1 2.8
2017-Dec-11 13:31N 45°40' W 122°46'1 2.2
2017-Dec-11 13:00N 45°39' W 122°45'1 1.5
2017-Dec-11 12:30N 45°39' W 122°46'4 7.2
2017-Dec-11 12:00N 45°36' W 122°46'3 5.3
2017-Dec-11 11:30N 45°34' W 122°44'0 0.0
2017-Dec-11 11:00N 45°34' W 122°44'0 0.0
2017-Dec-11 10:30N 45°34' W 122°44'0 0.0
2017-Dec-11 10:00N 45°34' W 122°44'0 0.0
2017-Dec-11 09:30N 45°34' W 122°44'1 2.2
2017-Dec-11 09:00N 45°34' W 122°45'2 3.8
2017-Dec-11 08:28N 45°36' W 122°47'1 1.7
2017-Dec-11 08:00N 45°35' W 122°46'2 4.9
2017-Dec-11 07:31N 45°34' W 122°44'0 0.0
2017-Dec-11 07:00N 45°34' W 122°44'0 0.0
2017-Dec-11 06:30N 45°34' W 122°44'0 0.0
2017-Dec-11 06:00N 45°34' W 122°44'0 0.0
2017-Dec-11 05:30N 45°34' W 122°44'0 0.0
2017-Dec-11 05:00N 45°34' W 122°44'0 0.0
2017-Dec-11 04:30N 45°34' W 122°44'0 0.0
2017-Dec-11 04:00N 45°34' W 122°44'0 0.0
2017-Dec-11 03:30N 45°34' W 122°44'0 0.0
2017-Dec-11 03:00N 45°34' W 122°44'0 0.0
2017-Dec-11 02:30N 45°34' W 122°44'0 0.0
2017-Dec-11 02:00N 45°34' W 122°44'0 0.0
2017-Dec-11 01:30N 45°34' W 122°44'0 0.0
2017-Dec-11 01:00N 45°34' W 122°44'0 0.0
2017-Dec-11 00:30N 45°34' W 122°44'0 0.0
2017-Dec-11 00:00N 45°34' W 122°44'0 0.0
2017-Dec-10 23:30N 45°34' W 122°44'0 0.0
2017-Dec-10 23:00N 45°34' W 122°44'0 0.0
2017-Dec-10 22:30N 45°34' W 122°44'0 0.0
2017-Dec-10 22:00N 45°34' W 122°44'0 0.0
2017-Dec-10 21:30N 45°34' W 122°44'0 0.0
2017-Dec-10 21:00N 45°34' W 122°44'0 0.0
2017-Dec-10 20:30N 45°34' W 122°44'0 0.0
2017-Dec-10 20:00N 45°34' W 122°44'0 0.0
2017-Dec-10 19:30N 45°34' W 122°44'0 0.0
2017-Dec-10 19:00N 45°34' W 122°44'0 0.0
2017-Dec-10 18:30N 45°34' W 122°44'0 0.0
2017-Dec-10 18:00N 45°34' W 122°44'0 0.0
2017-Dec-10 17:30N 45°34' W 122°44'0 0.0
2017-Dec-10 17:00N 45°34' W 122°44'0 0.0
2017-Dec-10 16:30N 45°34' W 122°44'0 0.0
2017-Dec-10 16:00N 45°34' W 122°44'0 0.0
2017-Dec-10 15:30N 45°34' W 122°44'0 0.0
2017-Dec-10 15:00N 45°34' W 122°44'0 0.0
2017-Dec-10 14:30N 45°34' W 122°44'0 0.0
2017-Dec-10 14:00N 45°34' W 122°44'0 0.0
2017-Dec-10 13:30N 45°34' W 122°44'0 0.0
2017-Dec-10 13:00N 45°34' W 122°44'0 0.0
2017-Dec-10 12:30N 45°34' W 122°44'0 0.0
2017-Dec-10 12:00N 45°34' W 122°44'0 0.0
2017-Dec-10 11:30N 45°34' W 122°44'0 0.0
2017-Dec-10 11:00N 45°34' W 122°44'0 0.0
2017-Dec-10 10:30N 45°34' W 122°44'0 0.0
2017-Dec-10 10:00N 45°34' W 122°44'0 0.0
2017-Dec-10 09:30N 45°34' W 122°44'0 0.0
2017-Dec-10 09:00N 45°34' W 122°44'0 0.0
2017-Dec-10 08:30N 45°34' W 122°44'0 0.0
2017-Dec-10 08:00N 45°34' W 122°44'0 0.0
2017-Dec-10 07:30N 45°34' W 122°44'0 0.0
2017-Dec-10 07:00N 45°34' W 122°44'0 0.0
2017-Dec-10 06:30N 45°34' W 122°44'0 0.0
2017-Dec-10 06:00N 45°34' W 122°44'0 0.0
2017-Dec-10 05:30N 45°34' W 122°44'0 0.0
2017-Dec-10 05:00N 45°34' W 122°44'0 0.0
2017-Dec-10 04:30N 45°34' W 122°44'0 0.0
2017-Dec-10 04:00N 45°34' W 122°44'0 0.0
2017-Dec-10 03:30N 45°34' W 122°44'0 0.0
2017-Dec-10 03:00N 45°34' W 122°44'0 0.0
2017-Dec-10 02:30N 45°34' W 122°44'0 0.0
2017-Dec-10 02:00N 45°34' W 122°44'0 0.0
2017-Dec-10 01:30N 45°34' W 122°44'0 0.0
2017-Dec-10 01:00N 45°34' W 122°44'3 5.9
2017-Dec-10 00:30N 45°36' W 122°47'0 0.2
2017-Dec-10 00:00N 45°36' W 122°46'3 5.4
2017-Dec-09 23:29N 45°34' W 122°44'0 0.0
2017-Dec-09 22:59N 45°34' W 122°44'0 0.0
2017-Dec-09 22:26N 45°34' W 122°44'0 0.0
2017-Dec-09 21:56N 45°34' W 122°44'0 0.0
2017-Dec-09 21:26N 45°34' W 122°44'0 0.0
2017-Dec-09 20:56N 45°34' W 122°44'0 0.0
2017-Dec-09 20:29N 45°34' W 122°44'0 0.0
2017-Dec-09 19:56N 45°34' W 122°44'0 0.0
2017-Dec-09 19:29N 45°34' W 122°44'0 0.0
2017-Dec-09 18:56N 45°34' W 122°44'0 0.0
2017-Dec-09 18:29N 45°34' W 122°44'0 0.0
2017-Dec-09 17:59N 45°34' W 122°44'0 0.0
2017-Dec-09 17:26N 45°34' W 122°44'0 0.0
2017-Dec-09 16:50N 45°34' W 122°44'0 0.0
2017-Dec-09 16:26N 45°34' W 122°44'2 3.9
2017-Dec-09 15:57N 45°35' W 122°46'3 6.2
2017-Dec-09 15:30N 45°37' W 122°47'2 1.6
2017-Dec-09 14:12N 45°39' W 122°45'0 0.0
2017-Dec-09 13:45N 45°39' W 122°45'0 0.0
2017-Dec-09 13:30N 45°39' W 122°45'0 0.0
2017-Dec-09 12:47N 45°39' W 122°45'0 0.0
2017-Dec-09 12:17N 45°39' W 122°45'0 0.0
2017-Dec-09 11:53N 45°39' W 122°45'2 5.5
2017-Dec-09 11:30N 45°41' W 122°46'611.3
2017-Dec-09 11:00N 45°46' W 122°46'510.8
2017-Dec-09 10:30N 45°52' W 122°47'510.7
2017-Dec-09 10:00N 45°57' W 122°49'510.7
2017-Dec-09 09:31N 46°01' W 122°52'0 0.4
2017-Dec-09 09:00N 46°02' W 122°52'0 0.1
2017-Dec-09 08:30N 46°02' W 122°53'2 4.1
2017-Dec-09 08:00N 46°04' W 122°53'3 5.3
2017-Dec-09 07:30N 46°05' W 122°56'0 0.0
2017-Dec-09 07:00N 46°05' W 122°56'0 0.0
2017-Dec-09 06:06N 46°05' W 122°56'0 0.1
2017-Dec-09 05:59N 46°05' W 122°56'1 1.3
2017-Dec-09 05:30N 46°06' W 122°56'0 0.1
2017-Dec-09 05:00N 46°06' W 122°56'0 0.0
2017-Dec-09 04:30N 46°06' W 122°56'0 0.0
2017-Dec-09 04:01N 46°06' W 122°56'0 0.1
2017-Dec-09 03:31N 46°06' W 122°56'0 0.1
2017-Dec-09 03:00N 46°06' W 122°56'0 0.1
2017-Dec-09 02:30N 46°06' W 122°56'0 0.0
2017-Dec-09 02:00N 46°06' W 122°56'0 0.0
2017-Dec-09 01:31N 46°06' W 122°56'0 0.0
2017-Dec-09 01:00N 46°06' W 122°56'0 0.0
2017-Dec-09 00:30N 46°06' W 122°56'0 0.0
2017-Dec-09 00:00N 46°06' W 122°56'1 1.1
2017-Dec-08 23:28N 46°05' W 122°56'0 0.0
2017-Dec-08 22:58N 46°05' W 122°56'0 0.0
2017-Dec-08 22:28N 46°05' W 122°56'0 0.0
2017-Dec-08 21:58N 46°05' W 122°56'0 0.0
2017-Dec-08 21:22N 46°05' W 122°56'0 0.0
2017-Dec-08 20:58N 46°05' W 122°56'0 0.0
2017-Dec-08 20:28N 46°05' W 122°56'0 0.0
2017-Dec-08 19:58N 46°05' W 122°56'0 0.0
2017-Dec-08 19:28N 46°05' W 122°56'0 0.0
2017-Dec-08 18:58N 46°05' W 122°56'0 0.0
2017-Dec-08 18:28N 46°05' W 122°56'0 0.0
2017-Dec-08 17:58N 46°05' W 122°56'0 0.0
2017-Dec-08 17:22N 46°05' W 122°56'0 0.0
2017-Dec-08 16:52N 46°05' W 122°56'0 0.0
2017-Dec-08 16:28N 46°05' W 122°56'0 0.0
2017-Dec-08 15:58N 46°05' W 122°56'0 0.0
2017-Dec-08 15:28N 46°05' W 122°56'0 0.0
2017-Dec-08 14:55N 46°05' W 122°56'0 0.0
2017-Dec-08 14:25N 46°05' W 122°56'0 0.0
2017-Dec-08 13:52N 46°05' W 122°56'0 0.0
2017-Dec-08 13:28N 46°05' W 122°56'0 0.0
2017-Dec-08 12:58N 46°05' W 122°56'0 0.0
2017-Dec-08 12:25N 46°05' W 122°56'0 0.0
2017-Dec-08 11:55N 46°05' W 122°56'0 0.0
2017-Dec-08 11:25N 46°05' W 122°56'0 0.0
2017-Dec-08 10:55N 46°05' W 122°56'0 0.0
2017-Dec-08 10:28N 46°05' W 122°56'0 0.0
2017-Dec-08 09:58N 46°05' W 122°56'0 0.0
2017-Dec-08 09:28N 46°05' W 122°56'0 0.0
2017-Dec-08 08:25N 46°05' W 122°56'0 0.0
2017-Dec-08 07:58N 46°05' W 122°56'0 0.0
2017-Dec-08 07:28N 46°05' W 122°56'0 0.0
2017-Dec-08 06:58N 46°05' W 122°56'0 0.0
2017-Dec-08 06:28N 46°05' W 122°56'0 0.0
2017-Dec-08 05:55N 46°05' W 122°56'0 0.0
2017-Dec-08 05:28N 46°05' W 122°56'0 0.0
2017-Dec-08 04:55N 46°05' W 122°56'0 0.0
2017-Dec-08 03:55N 46°05' W 122°56'0 0.0
2017-Dec-08 03:28N 46°05' W 122°56'0 0.0
2017-Dec-08 02:58N 46°05' W 122°56'0 0.0
2017-Dec-08 02:29N 46°05' W 122°56'0 0.0
2017-Dec-08 01:58N 46°05' W 122°56'0 0.0
2017-Dec-08 01:25N 46°05' W 122°56'0 0.0
2017-Dec-08 00:58N 46°05' W 122°56'0 0.0
2017-Dec-08 00:28N 46°05' W 122°56'0 0.0
2017-Dec-07 23:58N 46°05' W 122°56'0 0.0
2017-Dec-07 23:28N 46°05' W 122°56'0 0.0
2017-Dec-07 22:55N 46°05' W 122°56'0 0.0
2017-Dec-07 22:25N 46°05' W 122°56'0 0.0
2017-Dec-07 21:58N 46°05' W 122°56'0 0.0
2017-Dec-07 21:10N 46°05' W 122°56'0 0.0
2017-Dec-07 20:49N 46°05' W 122°56'0 0.0
2017-Dec-07 20:28N 46°05' W 122°56'0 0.0
2017-Dec-07 19:58N 46°05' W 122°56'0 0.0
2017-Dec-07 19:28N 46°05' W 122°56'0 0.0
2017-Dec-07 18:52N 46°05' W 122°56'0 0.0
2017-Dec-07 18:28N 46°05' W 122°56'0 0.0
2017-Dec-07 17:58N 46°05' W 122°56'0 0.0
2017-Dec-07 17:01N 46°05' W 122°56'0 0.0
2017-Dec-07 16:37N 46°05' W 122°56'0 0.0
2017-Dec-07 16:28N 46°05' W 122°56'0 0.0
2017-Dec-07 15:55N 46°05' W 122°56'0 0.1
2017-Dec-07 15:31N 46°05' W 122°56'4 8.3
2017-Dec-07 15:01N 46°02' W 122°53'3 6.8
2017-Dec-07 14:31N 45°59' W 122°50'0 0.2
2017-Dec-07 14:01N 45°59' W 122°50'1 2.2
2017-Dec-07 13:31N 46°00' W 122°51'2 3.6
2017-Dec-07 13:00N 46°02' W 122°52'0 0.0
2017-Dec-07 12:31N 46°02' W 122°52'0 0.0
2017-Dec-07 12:00N 46°02' W 122°52'0 0.6
2017-Dec-07 11:31N 46°02' W 122°53'0 0.0
2017-Dec-07 11:01N 46°02' W 122°53'0 0.0
2017-Dec-07 10:30N 46°02' W 122°53'0 0.0
2017-Dec-07 10:00N 46°02' W 122°53'0 0.0
2017-Dec-07 09:31N 46°02' W 122°53'0 0.0
2017-Dec-07 09:00N 46°02' W 122°53'2 3.6
2017-Dec-07 08:31N 46°00' W 122°51'1 2.6
2017-Dec-07 08:01N 45°59' W 122°50'0 0.0
2017-Dec-07 07:31N 45°59' W 122°50'3 6.1
2017-Dec-07 07:01N 46°02' W 122°52'0 0.0
2017-Dec-07 06:31N 46°02' W 122°52'3 5.0
2017-Dec-07 06:00N 45°59' W 122°50'0 0.0
2017-Dec-07 05:30N 45°59' W 122°50'0 0.6
2017-Dec-07 05:00N 45°59' W 122°50'3 5.1
2017-Dec-07 04:30N 46°01' W 122°52'3 5.5
2017-Dec-07 04:01N 46°04' W 122°53'0 0.2
2017-Dec-07 03:30N 46°04' W 122°53'2 1.7
2017-Dec-07 02:38N 46°03' W 122°53'1 7.6
2017-Dec-07 02:31N 46°02' W 122°52'0 0.1
2017-Dec-07 02:00N 46°02' W 122°52'0 0.0
2017-Dec-07 01:30N 46°02' W 122°52'0 0.0
2017-Dec-07 01:00N 46°02' W 122°52'0 0.2
2017-Dec-07 00:30N 46°02' W 122°52'1 2.9
2017-Dec-07 00:00N 46°00' W 122°51'5 9.7
2017-Dec-06 23:30N 45°56' W 122°48'510.2
2017-Dec-06 23:00N 45°51' W 122°47'510.1
2017-Dec-06 22:30N 45°46' W 122°46'610.5
2017-Dec-06 21:59N 45°40' W 122°46'2 4.1
2017-Dec-06 21:30N 45°39' W 122°45'0 0.1
2017-Dec-06 20:57N 45°39' W 122°45'  
2017-Dec-04 10:21N 46°05' W 122°56'0 0.0
2017-Dec-04 10:00N 46°05' W 122°56'0 0.0
2017-Dec-04 09:30N 46°05' W 122°56'0 0.0
2017-Dec-04 08:42N 46°05' W 122°56'0 0.0
2017-Dec-04 08:30N 46°05' W 122°56'0 0.0
2017-Dec-04 07:48N 46°05' W 122°56'0 0.0
2017-Dec-04 07:30N 46°05' W 122°56'0 0.0
2017-Dec-04 06:57N 46°05' W 122°56'0 0.0
2017-Dec-04 06:24N 46°05' W 122°56'0 0.0
2017-Dec-04 06:00N 46°05' W 122°56'0 0.0
2017-Dec-04 05:24N 46°05' W 122°56'0 0.0
2017-Dec-04 04:51N 46°05' W 122°56'0 0.0
2017-Dec-04 04:30N 46°05' W 122°56'1 2.4
2017-Dec-04 04:00N 46°05' W 122°54'612.0
2017-Dec-04 03:31N 45°60' W 122°51'1 1.4
2017-Dec-04 03:00N 45°59' W 122°50'0 0.4
2017-Dec-04 02:30N 45°59' W 122°50'4 8.6
2017-Dec-04 02:00N 46°03' W 122°53'3 6.5
2017-Dec-04 01:30N 46°05' W 122°56'0 0.0
2017-Dec-04 00:58N 46°05' W 122°56'0 0.0
2017-Dec-04 00:28N 46°05' W 122°56'0 0.0
2017-Dec-03 23:58N 46°05' W 122°56'0 0.0
2017-Dec-03 23:28N 46°05' W 122°56'0 0.0
2017-Dec-03 22:10N 46°05' W 122°56'0 0.0
2017-Dec-03 21:58N 46°05' W 122°56'0 0.0
2017-Dec-03 21:22N 46°05' W 122°56'0 0.0
2017-Dec-03 20:58N 46°05' W 122°56'0 0.9
2017-Dec-03 20:30N 46°06' W 122°56'0 0.3
2017-Dec-03 19:59N 46°06' W 122°56'0 0.8
2017-Dec-03 19:29N 46°06' W 122°57'0 0.4
2017-Dec-03 19:00N 46°06' W 122°57'0 0.0
2017-Dec-03 18:27N 46°06' W 122°57'1 1.4
2017-Dec-03 18:00N 46°06' W 122°56'0 0.6
2017-Dec-03 17:27N 46°05' W 122°56'0 0.0
2017-Dec-03 16:57N 46°05' W 122°56'0 0.0
2017-Dec-03 16:30N 46°05' W 122°56'0 0.0
2017-Dec-03 16:00N 46°05' W 122°56'0 0.0
2017-Dec-03 15:27N 46°05' W 122°56'0 0.0
2017-Dec-03 14:51N 46°05' W 122°56'0 0.0
2017-Dec-03 14:30N 46°05' W 122°56'0 0.0
2017-Dec-03 14:00N 46°05' W 122°56'0 0.0
2017-Dec-03 13:27N 46°05' W 122°56'0 0.0
2017-Dec-03 13:00N 46°05' W 122°56'0 0.0
2017-Dec-03 12:30N 46°05' W 122°56'0 0.0
2017-Dec-03 12:00N 46°05' W 122°56'0 0.0
2017-Dec-03 11:30N 46°05' W 122°56'0 0.0
2017-Dec-03 11:00N 46°05' W 122°56'0 0.0
2017-Dec-03 10:30N 46°05' W 122°56'0 0.0
2017-Dec-03 09:57N 46°05' W 122°56'0 0.0
2017-Dec-03 09:30N 46°05' W 122°56'0 0.0
2017-Dec-03 08:57N 46°05' W 122°56'0 0.0
2017-Dec-03 08:30N 46°05' W 122°56'0 0.0
2017-Dec-03 08:00N 46°05' W 122°56'0 0.0
2017-Dec-03 07:30N 46°05' W 122°56'0 0.0
2017-Dec-03 06:51N 46°05' W 122°56'0 0.0
2017-Dec-03 06:30N 46°05' W 122°56'0 0.0
2017-Dec-03 06:00N 46°05' W 122°56'0 0.0
2017-Dec-03 05:30N 46°05' W 122°56'0 0.0
2017-Dec-03 05:00N 46°05' W 122°56'0 0.0
2017-Dec-03 04:27N 46°05' W 122°56'0 0.0
2017-Dec-03 04:00N 46°05' W 122°56'0 0.0
2017-Dec-03 03:21N 46°05' W 122°56'0 0.0
2017-Dec-03 03:00N 46°05' W 122°56'510.0
2017-Dec-03 02:30N 46°01' W 122°52'611.5
2017-Dec-03 02:00N 45°56' W 122°48'612.1
2017-Dec-03 01:30N 45°50' W 122°47'713.4
2017-Dec-03 01:01N 45°43' W 122°46'5 9.8
2017-Dec-03 00:31N 45°39' W 122°45'2 3.1
2017-Dec-03 00:00N 45°38' W 122°43'0 0.1
2017-Dec-02 23:30N 45°38' W 122°43'1 2.3
2017-Dec-02 23:01N 45°39' W 122°45'0 0.8
2017-Dec-02 22:30N 45°39' W 122°45'0 0.0
2017-Dec-02 21:53N 45°39' W 122°45'0 0.0
2017-Dec-02 21:29N 45°39' W 122°45'0 0.0
2017-Dec-02 20:56N 45°39' W 122°45'0 0.0
2017-Dec-02 20:06N 45°39' W 122°45'0 0.0
2017-Dec-02 19:59N 45°39' W 122°45'0 0.0
2017-Dec-02 19:17N 45°39' W 122°45'0 0.0
2017-Dec-02 18:56N 45°39' W 122°45'0 0.0
2017-Dec-02 18:17N 45°39' W 122°45'0 0.0
2017-Dec-02 17:59N 45°39' W 122°45'0 0.0
2017-Dec-02 17:26N 45°39' W 122°45'0 0.0
2017-Dec-02 16:59N 45°39' W 122°45'0 0.0
2017-Dec-02 16:26N 45°39' W 122°45'0 0.0
2017-Dec-02 15:47N 45°39' W 122°45'0 0.0
2017-Dec-02 15:26N 45°39' W 122°45'0 0.0
2017-Dec-02 14:56N 45°39' W 122°45'0 0.0
2017-Dec-02 14:29N 45°39' W 122°45'0 0.0
2017-Dec-02 13:50N 45°39' W 122°45'0 0.0
2017-Dec-02 13:29N 45°39' W 122°45'0 0.0
2017-Dec-02 12:53N 45°39' W 122°45'0 0.0
2017-Dec-02 12:29N 45°39' W 122°45'0 0.0
2017-Dec-02 11:59N 45°39' W 122°45'0 0.0
2017-Dec-02 11:20N 45°39' W 122°45'0 0.0
2017-Dec-02 10:59N 45°39' W 122°45'0 0.0
2017-Dec-02 10:29N 45°39' W 122°45'0 0.0
2017-Dec-02 09:59N 45°39' W 122°45'0 0.0
2017-Dec-02 09:29N 45°39' W 122°45'0 0.0
2017-Dec-02 08:56N 45°39' W 122°45'0 0.0
2017-Dec-02 08:14N 45°39' W 122°45'0 0.0
2017-Dec-02 07:56N 45°39' W 122°45'0 0.0
2017-Dec-02 07:29N 45°39' W 122°45'0 0.0
2017-Dec-02 06:56N 45°39' W 122°45'0 0.0
2017-Dec-02 06:29N 45°39' W 122°45'0 0.0
2017-Dec-02 05:59N 45°39' W 122°45'0 0.0
2017-Dec-02 05:26N 45°39' W 122°45'0 0.0
2017-Dec-02 04:59N 45°39' W 122°45'0 0.0
2017-Dec-02 04:23N 45°39' W 122°45'0 0.0
2017-Dec-02 03:56N 45°39' W 122°45'0 0.0
2017-Dec-02 03:29N 45°39' W 122°45'0 0.0
2017-Dec-02 02:59N 45°39' W 122°45'2 3.2
2017-Dec-02 02:31N 45°38' W 122°43'0 0.2
2017-Dec-02 02:00N 45°38' W 122°43'0 0.1
2017-Dec-02 01:30N 45°38' W 122°43'0 0.0
2017-Dec-02 01:00N 45°38' W 122°43'1 2.9
2017-Dec-02 00:30N 45°39' W 122°45'1 1.9
2017-Dec-02 00:00N 45°38' W 122°44'0 0.0
2017-Dec-01 23:30N 45°38' W 122°44'1 1.7
2017-Dec-01 22:59N 45°39' W 122°45'0 0.0
2017-Dec-01 22:29N 45°39' W 122°45'0 0.0
2017-Dec-01 22:00N 45°39' W 122°45'1 2.0
2017-Dec-01 21:30N 45°38' W 122°44'2 3.7
2017-Dec-01 21:00N 45°39' W 122°46'4 8.3
2017-Dec-01 20:30N 45°35' W 122°45'4 8.4
2017-Dec-01 20:00N 45°32' W 122°40'0 0.1
2017-Dec-01 19:30N 45°32' W 122°40'3 4.9
2017-Dec-01 18:57N 45°34' W 122°44'0 0.0
2017-Dec-01 18:30N 45°34' W 122°44'0 0.0
2017-Dec-01 17:57N 45°34' W 122°44'1 1.3
2017-Dec-01 17:30N 45°34' W 122°43'1 1.2
2017-Dec-01 17:00N 45°34' W 122°44'  

Dump ship's entire track history